Stockton, California
Current Conditions -  °F | °C
As of 1:55 PM on Friday 28 Nov 2014 (Local Time) from KSCK Reporting Station
Haze Haze  
Wind Chill: 63°   Ceiling: Unl
Heat Index: 63°   Visibility: 5mi
Dew Point: 45°   Wind: 0mph
Humidity: 52%   Direction: NA
Pressure: 29.91"   Gusts: NA
Location:  37.95°N, 121.29°W
Report Text: KSCK 282155Z 00000KT 5SM HZ CLR 17/07 A2991 RMK AO2 SLP127 T01720072
Loading
Personal Weather Stations






























Interactive Weather Map New forecast layout! Learn more

10-Day Weather Forecast

Advertisements
Track Severe Weather on mobile